Boston, MA

11:13 PM EST on December 20, 2014 (GMT -0500)
Southie | Change Station
CLOSE
Current Station
Personal Weather Station
Location: Boston, MA
Elevation: 33 ft
Nearby Weather Stations
Active Advisory: Special Statement Active Notice: Public Information Statement

Elev 33 ft 42.34 °N, 71.04 °W | Updated 7 seconds ago

Overcast
Overcast
35.8 °F
Feels Like 36 °F
N
2.0
Wind Variable Wind from ENE
Gusts 4.0 mph

Today
High -- | Low -- °F
--% Chance of Precip.
Yesterday
High -- | Low -- °F
Precip. -- in
7:09 AM 4:14 PM
Waning Crescent, 1% visible
Pressure 30.30 in
Visibility 9.0 miles
Clouds Few 2000 ft
Overcast 4300 ft
Windchill 36 °F
Dew Point 29 °F
Humidity 76%
Rainfall 0.00 in
Snow Depth Not available.
UV 0 out of 12
Pollen .10 out of 12
Air Quality Not available.
Flu Activity Not available.
METAR KBOS 210354Z 01006KT 9SM -SN FEW020 OVC043 02/M03 A3030 RMK AO2 SNB44 SLP260 P0000 T00171028

More Conditions Fewer Conditions

Pressure 30.30 in
Visibility 9.0 miles
Clouds Few 2000 ft
Overcast 4300 ft
Windchill 36 °F
Dew Point 29 °F
Humidity 76%
Rainfall 0.00 in
Snow Depth Not available.
UV 0 out of 12
Pollen .10 out of 12
Air Quality Not available.
Flu Activity Not available.
METAR KBOS 210354Z 01006KT 9SM -SN FEW020 OVC043 02/M03 A3030 RMK AO2 SNB44 SLP260 P0000 T00171028

More Conditions Fewer Conditions

10-Day Weather Forecast

Almanac

Astronomy

Dec. 20, 2014 Rise Set
Actual Time
Civil Twilight
Nautical Twilight
Astronomical Twilight
Moon
Length of Visible Light
Length of Day
Tomorrow will be .
, % of the Moon is Illuminated

Today's Extremes

State Highs State Lows

Community

WunderPhotos

Upload Photos

1,779,357 photos uploaded!

WunderBlogs® & News

Nearby

Air Quality

  Air Quality AQ Index Pollutant
Not available.

Snow Depth

Station Depth Elevation

Earthquake Activity

City Distance Mag. Time & Date
Minimum magnitude displayed is 2.5.

Coastal Water Temperatures

Place Temperature

Nearby Weather Stations